Ahwahnee, California
Current Conditions -  °F | °C
As of 2:53 PM on Saturday 25 Oct 2014 (Local Time) from KMAE Reporting Station
Broken Clouds Broken Clouds  
Wind Chill: 70°   Ceiling: 9000
Heat Index: 70°   Visibility: 9mi
Dew Point: 53°   Wind: 16mph
Humidity: 55%   Direction: 300°WNW
Pressure: 30.06"   Gusts: NA
Location:  37.37°N, 119.73°W
Report Text: KMAE 252153Z AUTO 30014KT 9SM BKN090 21/12 A3006 RMK AO2 RAB37E48 SLP179 P0000 T02110117
Loading
Personal Weather Stations






























Interactive Weather Map New forecast layout! Learn more

10-Day Weather Forecast

Advertisements
Track Severe Weather on mobile